Main page
METAR-TAF:

METAR-TAF

Airports :

Kavala, Greece

Kavala International Airport

latitude: 40-59N, longitude: 024-36E, elevation: 5 m

Current weather observation

The report was made 44 minutes ago, at 07:20 UTC
Calm wind
Temperature 12°C
Humidity 67%
Pressure 1023 hPa
Visibility 10 km or more
no clouds below 1500 m and no cumulonimbus

METAR: LGKV 240720Z 00000KT CAVOK 12/06 Q1023

Time: 10:04 (08:04 UTC)

Forecast

The report was made 3 hours and 4 minutes ago, at 05:00 UTC
Forecast valid from 24 at 06 UTC to 24 at 15 UTC
Wind 5 kt from variable directions
Visibility 10 km or more
Few clouds at a height of 2500 ft
Becoming
from 24 at 08 UTC to 24 at 10 UTC
Wind 10 kt from the South/Southwest

TAF: LGKV 240500Z 2406/2415 VRB05KT 9999 FEW025 BECMG 2408/2410 21010KT

Weather observations and forecasts of more than 4000 airports (METAR and TAF reports).

The available stations are represented by yellow and red dots on the map.

Hover mouse over dot to see the name of the station.

Then click to see weather observations and forecasts.

To change the map : click on the green buttons with a black cross to zoom in, on the green button with a dash to zoom out, or on the green arrows for adjacent maps.


METAR-TAF: